sensor_id;sensor_type;location;lat;lon;timestamp;temperature;humidity
10294;DHT22;5192;50.328;7.610;2022-10-31T00:00:04;10.80;99.90
10294;DHT22;5192;50.328;7.610;2022-10-31T00:02:36;10.80;99.90
10294;DHT22;5192;50.328;7.610;2022-10-31T00:05:03;10.80;99.90
10294;DHT22;5192;50.328;7.610;2022-10-31T00:07:35;10.70;99.90
10294;DHT22;5192;50.328;7.610;2022-10-31T00:10:02;10.70;99.90
10294;DHT22;5192;50.328;7.610;2022-10-31T00:12:28;10.80;99.90
10294;DHT22;5192;50.328;7.610;2022-10-31T00:14:57;10.80;99.90
10294;DHT22;5192;50.328;7.610;2022-10-31T00:17:24;10.80;99.90
10294;DHT22;5192;50.328;7.610;2022-10-31T00:19:55;10.70;99.90
10294;DHT22;5192;50.328;7.610;2022-10-31T00:22:23;10.70;99.90
10294;DHT22;5192;50.328;7.610;2022-10-31T00:24:49;10.80;99.90
10294;DHT22;5192;50.328;7.610;2022-10-31T00:27:41;10.70;99.90
10294;DHT22;5192;50.328;7.610;2022-10-31T00:30:07;10.80;99.90
10294;DHT22;5192;50.328;7.610;2022-10-31T00:32:35;10.60;99.90
10294;DHT22;5192;50.328;7.610;2022-10-31T00:35:02;10.60;99.90
10294;DHT22;5192;50.328;7.610;2022-10-31T00:37:39;10.70;99.90
10294;DHT22;5192;50.328;7.610;2022-10-31T00:40:08;10.70;99.90
10294;DHT22;5192;50.328;7.610;2022-10-31T00:42:38;10.70;99.90
10294;DHT22;5192;50.328;7.610;2022-10-31T00:45:07;10.70;99.90
10294;DHT22;5192;50.328;7.610;2022-10-31T00:47:36;10.70;99.90
10294;DHT22;5192;50.328;7.610;2022-10-31T00:50:06;10.60;99.90
10294;DHT22;5192;50.328;7.610;2022-10-31T00:52:36;10.60;99.90
10294;DHT22;5192;50.328;7.610;2022-10-31T00:55:02;10.70;99.90
10294;DHT22;5192;50.328;7.610;2022-10-31T00:57:37;10.70;99.90
10294;DHT22;5192;50.328;7.610;2022-10-31T01:00:04;10.70;99.90
10294;DHT22;5192;50.328;7.610;2022-10-31T01:02:35;10.70;99.90
10294;DHT22;5192;50.328;7.610;2022-10-31T01:05:03;10.70;99.90
10294;DHT22;5192;50.328;7.610;2022-10-31T01:07:35;10.70;99.90
10294;DHT22;5192;50.328;7.610;2022-10-31T01:10:03;10.70;99.90
10294;DHT22;5192;50.328;7.610;2022-10-31T01:12:56;10.70;99.90
10294;DHT22;5192;50.328;7.610;2022-10-31T01:15:23;10.70;99.90
10294;DHT22;5192;50.328;7.610;2022-10-31T01:17:55;10.70;99.90
10294;DHT22;5192;50.328;7.610;2022-10-31T01:20:23;10.60;99.90
10294;DHT22;5192;50.328;7.610;2022-10-31T01:22:54;10.60;99.90
10294;DHT22;5192;50.328;7.610;2022-10-31T01:25:21;10.50;99.90
10294;DHT22;5192;50.328;7.610;2022-10-31T01:27:48;10.50;99.90
10294;DHT22;5192;50.328;7.610;2022-10-31T01:30:16;10.60;99.90
10294;DHT22;5192;50.328;7.610;2022-10-31T01:32:43;10.60;99.90
10294;DHT22;5192;50.328;7.610;2022-10-31T01:35:12;10.50;99.90
10294;DHT22;5192;50.328;7.610;2022-10-31T01:37:42;10.60;99.90
10294;DHT22;5192;50.328;7.610;2022-10-31T01:40:14;10.60;99.90
10294;DHT22;5192;50.328;7.610;2022-10-31T01:42:41;10.60;99.90
10294;DHT22;5192;50.328;7.610;2022-10-31T01:45:19;10.60;99.90
10294;DHT22;5192;50.328;7.610;2022-10-31T01:47:56;10.50;99.90
10294;DHT22;5192;50.328;7.610;2022-10-31T01:50:37;10.60;99.90
10294;DHT22;5192;50.328;7.610;2022-10-31T01:53:28;10.50;99.90
10294;DHT22;5192;50.328;7.610;2022-10-31T01:55:56;10.50;99.90
10294;DHT22;5192;50.328;7.610;2022-10-31T01:58:25;10.50;99.90
10294;DHT22;5192;50.328;7.610;2022-10-31T02:00:58;10.50;99.90
10294;DHT22;5192;50.328;7.610;2022-10-31T02:03:26;10.50;99.90
10294;DHT22;5192;50.328;7.610;2022-10-31T02:06:06;10.50;99.90
10294;DHT22;5192;50.328;7.610;2022-10-31T02:08:38;10.50;99.90
10294;DHT22;5192;50.328;7.610;2022-10-31T02:11:06;10.50;99.90
10294;DHT22;5192;50.328;7.610;2022-10-31T02:13:38;10.50;99.90
10294;DHT22;5192;50.328;7.610;2022-10-31T02:16:05;10.50;99.90
10294;DHT22;5192;50.328;7.610;2022-10-31T02:18:37;10.50;99.90
10294;DHT22;5192;50.328;7.610;2022-10-31T02:24:23;10.50;99.90
10294;DHT22;5192;50.328;7.610;2022-10-31T02:41:46;10.40;99.90
10294;DHT22;5192;50.328;7.610;2022-10-31T02:47:44;10.30;99.90
10294;DHT22;5192;50.328;7.610;2022-10-31T02:50:22;10.30;99.90
10294;DHT22;5192;50.328;7.610;2022-10-31T02:53:00;10.20;99.90
10294;DHT22;5192;50.328;7.610;2022-10-31T02:58:15;10.20;99.90
10294;DHT22;5192;50.328;7.610;2022-10-31T03:04:13;10.20;99.90
10294;DHT22;5192;50.328;7.610;2022-10-31T03:07:41;10.20;99.90
10294;DHT22;5192;50.328;7.610;2022-10-31T03:10:57;10.20;99.90
10294;DHT22;5192;50.328;7.610;2022-10-31T03:16:54;10.20;99.90
10294;DHT22;5192;50.328;7.610;2022-10-31T03:19:27;10.20;99.90
10294;DHT22;5192;50.328;7.610;2022-10-31T03:24:47;10.20;99.90
10294;DHT22;5192;50.328;7.610;2022-10-31T03:27:28;10.20;99.90
10294;DHT22;5192;50.328;7.610;2022-10-31T03:30:18;10.20;99.90
10294;DHT22;5192;50.328;7.610;2022-10-31T03:32:56;10.10;99.90
10294;DHT22;5192;50.328;7.610;2022-10-31T03:35:29;10.10;99.90
10294;DHT22;5192;50.328;7.610;2022-10-31T03:38:02;10.10;99.90
10294;DHT22;5192;50.328;7.610;2022-10-31T03:40:34;10.10;99.90
10294;DHT22;5192;50.328;7.610;2022-10-31T03:43:09;10.10;99.90
10294;DHT22;5192;50.328;7.610;2022-10-31T03:45:45;10.10;99.90
10294;DHT22;5192;50.328;7.610;2022-10-31T03:48:28;10.10;99.90
10294;DHT22;5192;50.328;7.610;2022-10-31T03:51:19;10.00;99.90
10294;DHT22;5192;50.328;7.610;2022-10-31T03:54:20;10.00;99.90
10294;DHT22;5192;50.328;7.610;2022-10-31T03:57:19;10.00;99.90
10294;DHT22;5192;50.328;7.610;2022-10-31T04:00:11;9.90;99.90
10294;DHT22;5192;50.328;7.610;2022-10-31T04:02:58;10.00;99.90
10294;DHT22;5192;50.328;7.610;2022-10-31T04:05:27;9.90;99.90
10294;DHT22;5192;50.328;7.610;2022-10-31T04:08:03;9.90;99.90
10294;DHT22;5192;50.328;7.610;2022-10-31T04:10:38;9.90;99.90
10294;DHT22;5192;50.328;7.610;2022-10-31T04:13:38;9.90;99.90
10294;DHT22;5192;50.328;7.610;2022-10-31T04:16:06;9.90;99.90
10294;DHT22;5192;50.328;7.610;2022-10-31T04:18:35;9.80;99.90
10294;DHT22;5192;50.328;7.610;2022-10-31T04:21:05;9.80;99.90
10294;DHT22;5192;50.328;7.610;2022-10-31T04:23:37;9.70;99.90
10294;DHT22;5192;50.328;7.610;2022-10-31T04:26:05;9.70;99.90
10294;DHT22;5192;50.328;7.610;2022-10-31T04:28:36;9.70;99.90
10294;DHT22;5192;50.328;7.610;2022-10-31T04:31:03;9.80;99.90
10294;DHT22;5192;50.328;7.610;2022-10-31T04:33:35;9.80;99.90
10294;DHT22;5192;50.328;7.610;2022-10-31T04:36:03;9.80;99.90
10294;DHT22;5192;50.328;7.610;2022-10-31T04:38:35;9.80;99.90
10294;DHT22;5192;50.328;7.610;2022-10-31T04:41:02;9.80;99.90
10294;DHT22;5192;50.328;7.610;2022-10-31T04:43:28;9.80;99.90
10294;DHT22;5192;50.328;7.610;2022-10-31T04:45:57;9.80;99.90
10294;DHT22;5192;50.328;7.610;2022-10-31T04:48:23;9.80;99.90
10294;DHT22;5192;50.328;7.610;2022-10-31T04:50:48;9.70;99.90
10294;DHT22;5192;50.328;7.610;2022-10-31T04:53:17;9.70;99.90
10294;DHT22;5192;50.328;7.610;2022-10-31T04:55:43;9.70;99.90
10294;DHT22;5192;50.328;7.610;2022-10-31T04:58:09;9.80;99.90
10294;DHT22;5192;50.328;7.610;2022-10-31T05:00:36;9.80;99.90
10294;DHT22;5192;50.328;7.610;2022-10-31T05:03:04;9.80;99.90
10294;DHT22;5192;50.328;7.610;2022-10-31T05:05:31;9.80;99.90
10294;DHT22;5192;50.328;7.610;2022-10-31T05:07:58;9.80;99.90
10294;DHT22;5192;50.328;7.610;2022-10-31T05:10:32;9.80;99.90
10294;DHT22;5192;50.328;7.610;2022-10-31T05:13:07;9.80;99.90
10294;DHT22;5192;50.328;7.610;2022-10-31T05:15:34;9.80;99.90
10294;DHT22;5192;50.328;7.610;2022-10-31T05:18:05;9.80;99.90
10294;DHT22;5192;50.328;7.610;2022-10-31T05:20:32;9.80;99.90
10294;DHT22;5192;50.328;7.610;2022-10-31T05:22:59;9.70;99.90
10294;DHT22;5192;50.328;7.610;2022-10-31T05:25:27;9.70;99.90
10294;DHT22;5192;50.328;7.610;2022-10-31T05:27:55;9.60;99.90
10294;DHT22;5192;50.328;7.610;2022-10-31T05:30:33;9.60;99.90
10294;DHT22;5192;50.328;7.610;2022-10-31T05:33:06;9.60;99.90
10294;DHT22;5192;50.328;7.610;2022-10-31T05:35:36;9.60;99.90
10294;DHT22;5192;50.328;7.610;2022-10-31T05:38:03;9.60;99.90
10294;DHT22;5192;50.328;7.610;2022-10-31T05:40:35;9.50;99.90
10294;DHT22;5192;50.328;7.610;2022-10-31T05:43:03;9.50;99.90
10294;DHT22;5192;50.328;7.610;2022-10-31T05:45:34;9.40;99.90
10294;DHT22;5192;50.328;7.610;2022-10-31T05:48:01;9.40;99.90
10294;DHT22;5192;50.328;7.610;2022-10-31T05:50:28;9.40;99.90
10294;DHT22;5192;50.328;7.610;2022-10-31T05:53:04;9.40;99.90
10294;DHT22;5192;50.328;7.610;2022-10-31T05:55:37;9.50;99.90
10294;DHT22;5192;50.328;7.610;2022-10-31T05:58:04;9.50;99.90
10294;DHT22;5192;50.328;7.610;2022-10-31T06:00:36;9.50;99.90
10294;DHT22;5192;50.328;7.610;2022-10-31T06:03:06;9.50;99.90
10294;DHT22;5192;50.328;7.610;2022-10-31T06:05:36;9.50;99.90
10294;DHT22;5192;50.328;7.610;2022-10-31T06:08:02;9.50;99.90
10294;DHT22;5192;50.328;7.610;2022-10-31T06:10:34;9.50;99.90
10294;DHT22;5192;50.328;7.610;2022-10-31T06:13:00;9.40;99.90
10294;DHT22;5192;50.328;7.610;2022-10-31T06:15:26;9.40;99.90
10294;DHT22;5192;50.328;7.610;2022-10-31T06:18:04;9.40;99.90
10294;DHT22;5192;50.328;7.610;2022-10-31T06:20:36;9.30;99.90
10294;DHT22;5192;50.328;7.610;2022-10-31T06:23:03;9.30;99.90
10294;DHT22;5192;50.328;7.610;2022-10-31T06:25:35;9.30;99.90
10294;DHT22;5192;50.328;7.610;2022-10-31T06:28:02;9.30;99.90
10294;DHT22;5192;50.328;7.610;2022-10-31T06:30:29;9.30;99.90
10294;DHT22;5192;50.328;7.610;2022-10-31T06:33:04;9.40;99.90
10294;DHT22;5192;50.328;7.610;2022-10-31T06:35:37;9.30;99.90
10294;DHT22;5192;50.328;7.610;2022-10-31T06:38:04;9.20;99.90
10294;DHT22;5192;50.328;7.610;2022-10-31T06:40:34;9.20;99.90
10294;DHT22;5192;50.328;7.610;2022-10-31T06:43:02;9.20;99.90
10294;DHT22;5192;50.328;7.610;2022-10-31T06:45:37;9.20;99.90
10294;DHT22;5192;50.328;7.610;2022-10-31T06:48:03;9.20;99.90
10294;DHT22;5192;50.328;7.610;2022-10-31T06:50:36;9.20;99.90
10294;DHT22;5192;50.328;7.610;2022-10-31T06:53:07;9.20;99.90
10294;DHT22;5192;50.328;7.610;2022-10-31T06:55:43;9.20;99.90
10294;DHT22;5192;50.328;7.610;2022-10-31T06:58:24;9.30;99.90
10294;DHT22;5192;50.328;7.610;2022-10-31T07:00:58;9.30;99.90
10294;DHT22;5192;50.328;7.610;2022-10-31T07:03:25;9.30;99.90
10294;DHT22;5192;50.328;7.610;2022-10-31T07:05:57;9.40;99.90
10294;DHT22;5192;50.328;7.610;2022-10-31T07:08:24;9.40;99.90
10294;DHT22;5192;50.328;7.610;2022-10-31T07:10:57;9.40;99.90
10294;DHT22;5192;50.328;7.610;2022-10-31T07:13:25;9.40;99.90
10294;DHT22;5192;50.328;7.610;2022-10-31T07:15:58;9.50;99.90
10294;DHT22;5192;50.328;7.610;2022-10-31T07:18:26;9.50;99.90
10294;DHT22;5192;50.328;7.610;2022-10-31T07:20:57;9.50;99.90
10294;DHT22;5192;50.328;7.610;2022-10-31T07:23:24;9.60;99.90
10294;DHT22;5192;50.328;7.610;2022-10-31T07:25:56;9.60;99.90
10294;DHT22;5192;50.328;7.610;2022-10-31T07:28:23;9.70;99.90
10294;DHT22;5192;50.328;7.610;2022-10-31T07:30:59;9.70;99.90
10294;DHT22;5192;50.328;7.610;2022-10-31T07:33:27;9.70;99.90
10294;DHT22;5192;50.328;7.610;2022-10-31T07:35:56;9.80;99.90
10294;DHT22;5192;50.328;7.610;2022-10-31T07:38:23;9.80;99.90
10294;DHT22;5192;50.328;7.610;2022-10-31T07:40:56;9.80;99.90
10294;DHT22;5192;50.328;7.610;2022-10-31T07:43:24;9.90;99.90
10294;DHT22;5192;50.328;7.610;2022-10-31T07:45:57;10.00;99.90
10294;DHT22;5192;50.328;7.610;2022-10-31T07:48:24;10.00;99.90
10294;DHT22;5192;50.328;7.610;2022-10-31T07:50:55;10.00;99.90
10294;DHT22;5192;50.328;7.610;2022-10-31T07:53:21;10.00;99.90
10294;DHT22;5192;50.328;7.610;2022-10-31T07:55:47;10.10;99.90
10294;DHT22;5192;50.328;7.610;2022-10-31T07:58:15;10.10;99.90
10294;DHT22;5192;50.328;7.610;2022-10-31T08:00:43;10.20;99.90
10294;DHT22;5192;50.328;7.610;2022-10-31T08:03:16;10.30;99.90
10294;DHT22;5192;50.328;7.610;2022-10-31T08:05:42;10.30;99.90
10294;DHT22;5192;50.328;7.610;2022-10-31T08:08:18;10.30;99.90
10294;DHT22;5192;50.328;7.610;2022-10-31T08:10:44;10.40;99.90
10294;DHT22;5192;50.328;7.610;2022-10-31T08:13:17;10.40;99.90
10294;DHT22;5192;50.328;7.610;2022-10-31T08:15:44;10.30;99.90
10294;DHT22;5192;50.328;7.610;2022-10-31T08:18:23;9.80;99.90
10294;DHT22;5192;50.328;7.610;2022-10-31T08:20:53;9.80;99.90
10294;DHT22;5192;50.328;7.610;2022-10-31T08:23:23;9.70;99.90
10294;DHT22;5192;50.328;7.610;2022-10-31T08:25:56;9.70;99.90
10294;DHT22;5192;50.328;7.610;2022-10-31T08:28:24;9.90;99.90
10294;DHT22;5192;50.328;7.610;2022-10-31T08:30:56;10.10;99.90
10294;DHT22;5192;50.328;7.610;2022-10-31T08:33:24;10.30;99.90
10294;DHT22;5192;50.328;7.610;2022-10-31T08:36:16;10.50;99.90
10294;DHT22;5192;50.328;7.610;2022-10-31T08:38:42;10.60;99.90
10294;DHT22;5192;50.328;7.610;2022-10-31T08:41:14;10.70;99.90
10294;DHT22;5192;50.328;7.610;2022-10-31T08:43:45;10.80;99.90
10294;DHT22;5192;50.328;7.610;2022-10-31T08:46:15;10.90;99.90
10294;DHT22;5192;50.328;7.610;2022-10-31T08:48:42;11.00;99.90
10294;DHT22;5192;50.328;7.610;2022-10-31T08:51:09;11.00;99.90
10294;DHT22;5192;50.328;7.610;2022-10-31T08:53:56;11.20;99.90
10294;DHT22;5192;50.328;7.610;2022-10-31T08:56:23;11.30;99.90
10294;DHT22;5192;50.328;7.610;2022-10-31T08:58:58;11.50;99.90
10294;DHT22;5192;50.328;7.610;2022-10-31T09:01:25;11.60;99.90
10294;DHT22;5192;50.328;7.610;2022-10-31T09:03:57;11.70;99.90
10294;DHT22;5192;50.328;7.610;2022-10-31T09:06:23;11.70;99.90
10294;DHT22;5192;50.328;7.610;2022-10-31T09:08:52;11.70;99.90
10294;DHT22;5192;50.328;7.610;2022-10-31T09:11:23;11.90;99.90
10294;DHT22;5192;50.328;7.610;2022-10-31T09:13:55;11.90;99.90
10294;DHT22;5192;50.328;7.610;2022-10-31T09:16:23;11.90;99.90
10294;DHT22;5192;50.328;7.610;2022-10-31T09:18:56;12.10;99.90
10294;DHT22;5192;50.328;7.610;2022-10-31T09:21:25;12.10;99.90
10294;DHT22;5192;50.328;7.610;2022-10-31T09:23:56;12.10;99.90
10294;DHT22;5192;50.328;7.610;2022-10-31T09:26:23;12.10;99.90
10294;DHT22;5192;50.328;7.610;2022-10-31T09:28:55;12.20;99.90
10294;DHT22;5192;50.328;7.610;2022-10-31T09:31:26;12.20;99.90
10294;DHT22;5192;50.328;7.610;2022-10-31T09:33:56;12.20;99.90
10294;DHT22;5192;50.328;7.610;2022-10-31T09:36:23;12.20;99.90
10294;DHT22;5192;50.328;7.610;2022-10-31T09:38:54;12.40;99.90
10294;DHT22;5192;50.328;7.610;2022-10-31T09:41:47;12.50;99.90
10294;DHT22;5192;50.328;7.610;2022-10-31T09:50:47;12.70;99.90
10294;DHT22;5192;50.328;7.610;2022-10-31T09:53:32;12.80;99.90
10294;DHT22;5192;50.328;7.610;2022-10-31T09:56:16;12.90;99.90
10294;DHT22;5192;50.328;7.610;2022-10-31T09:58:49;13.00;99.90
10294;DHT22;5192;50.328;7.610;2022-10-31T10:01:56;13.00;99.90
10294;DHT22;5192;50.328;7.610;2022-10-31T10:16:44;13.40;99.90
10294;DHT22;5192;50.328;7.610;2022-10-31T10:25:22;13.80;99.90
10294;DHT22;5192;50.328;7.610;2022-10-31T10:28:25;13.80;99.90
10294;DHT22;5192;50.328;7.610;2022-10-31T10:39:35;14.10;99.90
10294;DHT22;5192;50.328;7.610;2022-10-31T10:42:17;14.20;99.90
10294;DHT22;5192;50.328;7.610;2022-10-31T10:45:22;14.30;99.90
10294;DHT22;5192;50.328;7.610;2022-10-31T10:48:25;14.20;94.80
10294;DHT22;5192;50.328;7.610;2022-10-31T10:50:56;14.00;99.90
10294;DHT22;5192;50.328;7.610;2022-10-31T10:53:47;14.20;99.90
10294;DHT22;5192;50.328;7.610;2022-10-31T10:59:24;14.50;99.90
10294;DHT22;5192;50.328;7.610;2022-10-31T11:02:15;14.50;99.90
10294;DHT22;5192;50.328;7.610;2022-10-31T11:04:58;14.30;99.90
10294;DHT22;5192;50.328;7.610;2022-10-31T11:07:38;14.50;99.90
10294;DHT22;5192;50.328;7.610;2022-10-31T11:10:11;14.50;99.90
10294;DHT22;5192;50.328;7.610;2022-10-31T11:13:06;14.70;99.90
10294;DHT22;5192;50.328;7.610;2022-10-31T11:16:08;14.90;96.80
10294;DHT22;5192;50.328;7.610;2022-10-31T11:18:46;15.10;96.80
10294;DHT22;5192;50.328;7.610;2022-10-31T11:21:25;15.20;95.50
10294;DHT22;5192;50.328;7.610;2022-10-31T11:24:26;15.30;81.80
10294;DHT22;5192;50.328;7.610;2022-10-31T11:27:23;15.60;83.10
10294;DHT22;5192;50.328;7.610;2022-10-31T11:29:49;15.90;76.60
10294;DHT22;5192;50.328;7.610;2022-10-31T11:32:27;16.10;76.40
10294;DHT22;5192;50.328;7.610;2022-10-31T11:35:18;16.40;68.30
10294;DHT22;5192;50.328;7.610;2022-10-31T11:37:59;16.70;61.80
10294;DHT22;5192;50.328;7.610;2022-10-31T11:40:27;16.70;52.80
10294;DHT22;5192;50.328;7.610;2022-10-31T11:43:05;16.70;52.60
10294;DHT22;5192;50.328;7.610;2022-10-31T11:45:39;16.80;58.00
10294;DHT22;5192;50.328;7.610;2022-10-31T11:48:19;16.50;62.60
10294;DHT22;5192;50.328;7.610;2022-10-31T11:51:02;16.70;61.40
10294;DHT22;5192;50.328;7.610;2022-10-31T11:53:32;16.60;59.40
10294;DHT22;5192;50.328;7.610;2022-10-31T11:56:17;16.50;57.60
10294;DHT22;5192;50.328;7.610;2022-10-31T11:58:59;16.40;64.00
10294;DHT22;5192;50.328;7.610;2022-10-31T12:01:49;16.50;66.40
10294;DHT22;5192;50.328;7.610;2022-10-31T12:04:57;16.50;68.20
10294;DHT22;5192;50.328;7.610;2022-10-31T12:07:56;16.60;70.20
10294;DHT22;5192;50.328;7.610;2022-10-31T12:10:28;16.70;61.10
10294;DHT22;5192;50.328;7.610;2022-10-31T12:13:37;16.40;62.80
10294;DHT22;5192;50.328;7.610;2022-10-31T12:16:28;16.50;60.30
10294;DHT22;5192;50.328;7.610;2022-10-31T12:25:25;16.70;64.60
10294;DHT22;5192;50.328;7.610;2022-10-31T12:40:00;17.00;61.80
10294;DHT22;5192;50.328;7.610;2022-10-31T12:42:38;17.00;53.40
10294;DHT22;5192;50.328;7.610;2022-10-31T12:48:50;17.20;47.80
10294;DHT22;5192;50.328;7.610;2022-10-31T12:57:40;17.40;49.20
10294;DHT22;5192;50.328;7.610;2022-10-31T13:00:28;17.50;43.60
10294;DHT22;5192;50.328;7.610;2022-10-31T13:05:47;17.70;43.30
10294;DHT22;5192;50.328;7.610;2022-10-31T13:11:43;18.00;36.20
10294;DHT22;5192;50.328;7.610;2022-10-31T13:14:30;18.00;39.50
10294;DHT22;5192;50.328;7.610;2022-10-31T13:17:38;18.00;37.20
10294;DHT22;5192;50.328;7.610;2022-10-31T13:20:38;18.00;35.30
10294;DHT22;5192;50.328;7.610;2022-10-31T13:23:36;18.10;31.70
10294;DHT22;5192;50.328;7.610;2022-10-31T13:26:18;18.30;33.40
10294;DHT22;5192;50.328;7.610;2022-10-31T13:31:54;18.40;38.80
10294;DHT22;5192;50.328;7.610;2022-10-31T13:34:50;18.40;39.80
10294;DHT22;5192;50.328;7.610;2022-10-31T13:38:04;18.40;36.20
10294;DHT22;5192;50.328;7.610;2022-10-31T13:40:57;18.00;43.60
10294;DHT22;5192;50.328;7.610;2022-10-31T13:46:44;17.80;38.90
10294;DHT22;5192;50.328;7.610;2022-10-31T13:52:24;17.80;41.80
10294;DHT22;5192;50.328;7.610;2022-10-31T13:54:57;17.80;44.50
10294;DHT22;5192;50.328;7.610;2022-10-31T13:57:44;17.80;46.50
10294;DHT22;5192;50.328;7.610;2022-10-31T14:03:05;16.80;63.90
10294;DHT22;5192;50.328;7.610;2022-10-31T14:05:35;17.00;64.20
10294;DHT22;5192;50.328;7.610;2022-10-31T14:08:04;17.10;68.20
10294;DHT22;5192;50.328;7.610;2022-10-31T14:10:45;17.20;70.90
10294;DHT22;5192;50.328;7.610;2022-10-31T14:16:33;17.30;51.70
10294;DHT22;5192;50.328;7.610;2022-10-31T14:19:24;17.40;47.70
10294;DHT22;5192;50.328;7.610;2022-10-31T14:21:57;17.50;46.30
10294;DHT22;5192;50.328;7.610;2022-10-31T14:29:54;17.70;34.30
10294;DHT22;5192;50.328;7.610;2022-10-31T14:32:26;17.80;35.20
10294;DHT22;5192;50.328;7.610;2022-10-31T14:34:57;17.70;30.20
10294;DHT22;5192;50.328;7.610;2022-10-31T14:40:42;17.80;25.80
10294;DHT22;5192;50.328;7.610;2022-10-31T14:43:50;17.90;23.20
10294;DHT22;5192;50.328;7.610;2022-10-31T14:52:20;18.50;14.50
10294;DHT22;5192;50.328;7.610;2022-10-31T14:54:59;18.60;13.90
10294;DHT22;5192;50.328;7.610;2022-10-31T14:57:34;18.80;15.10
10294;DHT22;5192;50.328;7.610;2022-10-31T15:00:15;18.70;10.20
10294;DHT22;5192;50.328;7.610;2022-10-31T15:08:50;18.80;14.00
10294;DHT22;5192;50.328;7.610;2022-10-31T15:11:26;18.70;14.00
10294;DHT22;5192;50.328;7.610;2022-10-31T15:13:58;18.60;15.20
10294;DHT22;5192;50.328;7.610;2022-10-31T15:16:30;18.30;13.20
10294;DHT22;5192;50.328;7.610;2022-10-31T15:19:28;18.30;14.90
10294;DHT22;5192;50.328;7.610;2022-10-31T15:21:57;18.10;16.30
10294;DHT22;5192;50.328;7.610;2022-10-31T15:24:34;17.90;20.00
10294;DHT22;5192;50.328;7.610;2022-10-31T15:27:04;17.90;19.30
10294;DHT22;5192;50.328;7.610;2022-10-31T15:29:32;17.80;22.00
10294;DHT22;5192;50.328;7.610;2022-10-31T15:32:26;17.60;24.20
10294;DHT22;5192;50.328;7.610;2022-10-31T15:35:25;17.40;24.20
10294;DHT22;5192;50.328;7.610;2022-10-31T15:37:53;17.40;29.60
10294;DHT22;5192;50.328;7.610;2022-10-31T15:40:36;17.40;31.80
10294;DHT22;5192;50.328;7.610;2022-10-31T15:43:14;17.20;34.60
10294;DHT22;5192;50.328;7.610;2022-10-31T15:45:51;17.10;34.10
10294;DHT22;5192;50.328;7.610;2022-10-31T15:48:26;17.00;29.90
10294;DHT22;5192;50.328;7.610;2022-10-31T15:50:58;17.00;31.10
10294;DHT22;5192;50.328;7.610;2022-10-31T15:53:44;16.90;30.50
10294;DHT22;5192;50.328;7.610;2022-10-31T15:56:33;16.90;30.60
10294;DHT22;5192;50.328;7.610;2022-10-31T15:59:04;16.80;32.80
10294;DHT22;5192;50.328;7.610;2022-10-31T16:01:32;16.70;32.60
10294;DHT22;5192;50.328;7.610;2022-10-31T16:06:41;16.60;37.10
10294;DHT22;5192;50.328;7.610;2022-10-31T16:09:24;16.50;38.30
10294;DHT22;5192;50.328;7.610;2022-10-31T16:11:56;16.40;45.60
10294;DHT22;5192;50.328;7.610;2022-10-31T16:14:28;16.20;47.80
10294;DHT22;5192;50.328;7.610;2022-10-31T16:16:58;16.10;53.00
10294;DHT22;5192;50.328;7.610;2022-10-31T16:22:24;15.80;58.40
10294;DHT22;5192;50.328;7.610;2022-10-31T16:25:17;15.70;62.40
10294;DHT22;5192;50.328;7.610;2022-10-31T16:27:50;15.70;65.80
10294;DHT22;5192;50.328;7.610;2022-10-31T16:30:39;15.60;69.10
10294;DHT22;5192;50.328;7.610;2022-10-31T16:36:35;15.40;71.30
10294;DHT22;5192;50.328;7.610;2022-10-31T16:39:05;15.30;70.30
10294;DHT22;5192;50.328;7.610;2022-10-31T16:41:41;15.40;69.60
10294;DHT22;5192;50.328;7.610;2022-10-31T16:44:26;15.30;71.70
10294;DHT22;5192;50.328;7.610;2022-10-31T16:47:19;15.20;73.40
10294;DHT22;5192;50.328;7.610;2022-10-31T16:49:47;15.10;77.00
10294;DHT22;5192;50.328;7.610;2022-10-31T16:52:19;15.00;79.50
10294;DHT22;5192;50.328;7.610;2022-10-31T16:54:46;14.90;82.20
10294;DHT22;5192;50.328;7.610;2022-10-31T16:57:19;14.80;81.40
10294;DHT22;5192;50.328;7.610;2022-10-31T16:59:49;14.90;79.70
10294;DHT22;5192;50.328;7.610;2022-10-31T17:02:25;14.90;80.30
10294;DHT22;5192;50.328;7.610;2022-10-31T17:04:56;14.80;82.60
10294;DHT22;5192;50.328;7.610;2022-10-31T17:07:24;14.70;86.40
10294;DHT22;5192;50.328;7.610;2022-10-31T17:09:50;14.50;90.30
10294;DHT22;5192;50.328;7.610;2022-10-31T17:13:04;14.40;94.50
10294;DHT22;5192;50.328;7.610;2022-10-31T17:15:42;14.30;98.00
10294;DHT22;5192;50.328;7.610;2022-10-31T17:18:30;14.20;99.90
10294;DHT22;5192;50.328;7.610;2022-10-31T17:21:01;14.20;99.90
10294;DHT22;5192;50.328;7.610;2022-10-31T17:23:30;14.10;99.70
10294;DHT22;5192;50.328;7.610;2022-10-31T17:26:02;14.10;97.60
10294;DHT22;5192;50.328;7.610;2022-10-31T17:28:38;14.10;91.20
10294;DHT22;5192;50.328;7.610;2022-10-31T17:31:10;14.20;79.80
10294;DHT22;5192;50.328;7.610;2022-10-31T17:33:44;14.30;74.00
10294;DHT22;5192;50.328;7.610;2022-10-31T17:36:17;14.50;71.00
10294;DHT22;5192;50.328;7.610;2022-10-31T17:38:45;14.50;69.90
10294;DHT22;5192;50.328;7.610;2022-10-31T17:41:17;14.50;67.20
10294;DHT22;5192;50.328;7.610;2022-10-31T17:43:43;14.50;62.70
10294;DHT22;5192;50.328;7.610;2022-10-31T17:46:15;14.60;61.10
10294;DHT22;5192;50.328;7.610;2022-10-31T17:48:43;14.70;56.30
10294;DHT22;5192;50.328;7.610;2022-10-31T17:51:09;14.70;48.80
10294;DHT22;5192;50.328;7.610;2022-10-31T17:53:37;14.90;42.30
10294;DHT22;5192;50.328;7.610;2022-10-31T17:56:09;14.90;41.20
10294;DHT22;5192;50.328;7.610;2022-10-31T17:58:39;14.80;50.80
10294;DHT22;5192;50.328;7.610;2022-10-31T18:01:11;14.70;64.90
10294;DHT22;5192;50.328;7.610;2022-10-31T18:03:44;14.60;75.00
10294;DHT22;5192;50.328;7.610;2022-10-31T18:06:20;14.40;81.20
10294;DHT22;5192;50.328;7.610;2022-10-31T18:08:46;14.40;64.90
10294;DHT22;5192;50.328;7.610;2022-10-31T18:11:19;14.50;55.80
10294;DHT22;5192;50.328;7.610;2022-10-31T18:13:47;14.50;56.60
10294;DHT22;5192;50.328;7.610;2022-10-31T18:16:19;14.50;51.60
10294;DHT22;5192;50.328;7.610;2022-10-31T18:18:57;14.50;53.30
10294;DHT22;5192;50.328;7.610;2022-10-31T18:21:37;14.50;55.30
10294;DHT22;5192;50.328;7.610;2022-10-31T18:24:05;14.60;49.80
10294;DHT22;5192;50.328;7.610;2022-10-31T18:26:38;14.70;43.80
10294;DHT22;5192;50.328;7.610;2022-10-31T18:29:04;14.90;41.60
10294;DHT22;5192;50.328;7.610;2022-10-31T18:31:35;14.90;40.40
10294;DHT22;5192;50.328;7.610;2022-10-31T18:34:19;14.90;38.60
10294;DHT22;5192;50.328;7.610;2022-10-31T18:36:45;15.10;38.10
10294;DHT22;5192;50.328;7.610;2022-10-31T18:39:22;14.90;37.70
10294;DHT22;5192;50.328;7.610;2022-10-31T18:41:49;14.90;38.60
10294;DHT22;5192;50.328;7.610;2022-10-31T18:44:17;14.90;38.30
10294;DHT22;5192;50.328;7.610;2022-10-31T18:46:47;14.90;36.10
10294;DHT22;5192;50.328;7.610;2022-10-31T18:49:19;14.90;37.00
10294;DHT22;5192;50.328;7.610;2022-10-31T18:51:49;14.90;36.20
10294;DHT22;5192;50.328;7.610;2022-10-31T18:54:19;14.90;38.40
10294;DHT22;5192;50.328;7.610;2022-10-31T18:57:06;14.90;35.70
10294;DHT22;5192;50.328;7.610;2022-10-31T18:59:37;14.90;34.30
10294;DHT22;5192;50.328;7.610;2022-10-31T19:02:13;14.90;35.70
10294;DHT22;5192;50.328;7.610;2022-10-31T19:04:46;14.80;37.60
10294;DHT22;5192;50.328;7.610;2022-10-31T19:07:15;14.80;39.00